Terminal Aerodrome Forecast
Issued by NWS

Home | Current Version | Previous Version | Text Only | Print | Product List | Glossary On
Versions: 1 2 3 4 5 6 7 8 9 10 11 12 13 14 15 16 17
000
FTUS43 KAPX 250539
TAFPLN
TAF
KPLN 250539Z 2506/2606 28005KT 3SM BR VCSH OVC006
     FM250800 29004KT P6SM SCT010 BKN060
      TEMPO 2508/2510 5SM BR
     FM251300 28010KT P6SM SKC
     FM251900 29013G21KT P6SM SCT040
     FM260000 30006KT P6SM SKC=

USA.gov is the U.S. government's official web portal to all federal, state and local government web resources and services.